createdAt,value
2018-03-28T00:01:51.314Z,99075.59
2018-03-28T00:04:20.519Z,99073.30
2018-03-28T00:06:49.734Z,99073.78
2018-03-28T00:09:18.941Z,99070.38
2018-03-28T00:11:48.981Z,99073.70
2018-03-28T00:14:18.938Z,99074.28
2018-03-28T00:16:48.130Z,99073.95
2018-03-28T00:19:17.332Z,99072.59
2018-03-28T00:21:46.577Z,99075.78
2018-03-28T00:24:16.531Z,99070.25
2018-03-28T00:26:45.770Z,99073.34
2018-03-28T00:29:14.967Z,99068.89
2018-03-28T00:31:44.958Z,99066.02
2018-03-28T00:34:14.180Z,99067.15
2018-03-28T00:36:43.377Z,99064.49
2018-03-28T00:39:12.610Z,99068.64
2018-03-28T00:41:41.905Z,99062.31
2018-03-28T00:44:11.074Z,99055.59
2018-03-28T00:46:40.274Z,99054.52
2018-03-28T00:49:09.491Z,99041.89
2018-03-28T00:51:39.534Z,99039.08
2018-03-28T00:54:08.828Z,99039.59
2018-03-28T00:56:38.915Z,99032.74
2018-03-28T00:59:08.924Z,99038.63
2018-03-28T01:01:38.122Z,99037.67
2018-03-28T01:04:08.094Z,99030.34
2018-03-28T01:06:37.340Z,99038.55
2018-03-28T01:09:07.325Z,99027.89
2018-03-28T01:11:36.558Z,99032.89
2018-03-28T01:14:06.518Z,99034.70
2018-03-28T01:16:35.881Z,99031.88
2018-03-28T01:19:05.874Z,99024.21
2018-03-28T01:21:35.101Z,99030.02
2018-03-28T01:24:04.375Z,99030.10
2018-03-28T01:26:33.857Z,99034.72
2018-03-28T01:29:03.054Z,99032.52
2018-03-28T01:31:32.259Z,99027.62
2018-03-28T01:34:01.473Z,99025.91
2018-03-28T01:36:31.462Z,99023.55
2018-03-28T01:39:00.679Z,99023.03
2018-03-28T01:41:29.971Z,99022.84
2018-03-28T01:43:59.169Z,99014.81
2018-03-28T01:46:28.359Z,99017.09
2018-03-28T01:48:57.613Z,99017.27
2018-03-28T01:51:27.114Z,99013.27
2018-03-28T01:53:56.301Z,99009.11
2018-03-28T01:56:25.551Z,99000.25
2018-03-28T01:58:54.927Z,99014.67
2018-03-28T02:01:24.121Z,99010.16
2018-03-28T02:03:53.550Z,99009.09
2018-03-28T02:06:22.747Z,99008.92
2018-03-28T02:08:51.956Z,98994.80
2018-03-28T02:11:21.458Z,99005.97
2018-03-28T02:13:50.642Z,99000.73
2018-03-28T02:16:19.843Z,99001.63
2018-03-28T02:18:49.046Z,99010.05
2018-03-28T02:21:19.931Z,99016.33
2018-03-28T02:23:49.170Z,99023.89
2018-03-28T02:26:18.372Z,99018.78
2018-03-28T02:28:47.608Z,99022.23
2018-03-28T02:31:17.619Z,99034.91
2018-03-28T02:33:47.619Z,99032.72
2018-03-28T02:36:16.817Z,99035.65
2018-03-28T02:38:46.072Z,99025.44
2018-03-28T02:41:15.311Z,99023.52
2018-03-28T02:43:45.550Z,99035.27
2018-03-28T02:46:14.747Z,99029.56
2018-03-28T02:48:44.742Z,99024.05
2018-03-28T02:51:14.728Z,99022.73
2018-03-28T02:53:43.978Z,99029.79
2018-03-28T02:56:13.955Z,99024.08
2018-03-28T02:58:43.143Z,99019.45
2018-03-28T03:01:12.353Z,99017.36
2018-03-28T03:03:41.579Z,99010.72
2018-03-28T03:06:10.801Z,99008.36
2018-03-28T03:08:40.016Z,99012.47
2018-03-28T03:11:09.235Z,99010.16
2018-03-28T03:13:38.414Z,98999.78
2018-03-28T03:16:07.713Z,99006.45
2018-03-28T03:18:36.923Z,99006.38
2018-03-28T03:21:06.106Z,99005.77
2018-03-28T03:23:35.331Z,99007.56
2018-03-28T03:26:04.522Z,99003.69
2018-03-28T03:28:33.723Z,99012.38
2018-03-28T03:31:02.930Z,99005.16
2018-03-28T03:33:32.134Z,99006.48
2018-03-28T03:36:01.351Z,99005.17
2018-03-28T03:38:31.330Z,99010.06
2018-03-28T03:41:00.540Z,99004.30
2018-03-28T03:43:29.772Z,99004.08
2018-03-28T03:45:59.838Z,99002.73
2018-03-28T03:48:29.064Z,98998.06
2018-03-28T03:50:58.271Z,98996.75
2018-03-28T03:53:27.495Z,98998.67
2018-03-28T03:55:56.743Z,99003.35
2018-03-28T03:58:25.998Z,99002.78
2018-03-28T04:00:55.242Z,99018.19
2018-03-28T04:03:24.442Z,99011.89
2018-03-28T04:05:53.661Z,99021.59
2018-03-28T04:08:23.779Z,99010.24
2018-03-28T04:10:53.754Z,99015.93
2018-03-28T04:13:23.267Z,99014.01
2018-03-28T04:15:52.516Z,99013.05
2018-03-28T04:18:21.747Z,99018.55
2018-03-28T04:20:50.946Z,99017.11
2018-03-28T04:23:20.219Z,99020.30
2018-03-28T04:25:50.258Z,99023.88
2018-03-28T04:28:19.434Z,99017.75
2018-03-28T04:30:48.646Z,99023.56
2018-03-28T04:33:17.952Z,99016.58
2018-03-28T04:35:47.186Z,99017.75
2018-03-28T04:38:16.599Z,99007.76
2018-03-28T04:40:45.822Z,99014.13
2018-03-28T04:43:15.787Z,99010.03
2018-03-28T04:45:45.012Z,99012.56
2018-03-28T04:48:14.244Z,99018.37
2018-03-28T04:50:43.459Z,99013.34
2018-03-28T04:53:12.654Z,99011.95
2018-03-28T04:55:41.898Z,99015.72
2018-03-28T04:58:11.878Z,99006.06
2018-03-28T05:00:41.825Z,99014.70
2018-03-28T05:03:11.046Z,99014.70
2018-03-28T05:05:41.043Z,99017.91
2018-03-28T05:08:10.257Z,99008.95
2018-03-28T05:10:40.250Z,99009.34
2018-03-28T05:13:09.447Z,99018.37
2018-03-28T05:15:38.659Z,99013.80
2018-03-28T05:18:08.651Z,99019.00
2018-03-28T05:20:37.951Z,99021.02
2018-03-28T05:23:07.174Z,99016.61
2018-03-28T05:25:37.134Z,99023.16
2018-03-28T05:28:06.371Z,99021.88
2018-03-28T05:30:35.851Z,99024.19
2018-03-28T05:33:05.830Z,99027.68
2018-03-28T05:35:35.092Z,99030.09
2018-03-28T05:38:05.068Z,99035.06
2018-03-28T05:40:35.035Z,99038.91
2018-03-28T05:43:05.011Z,99040.44
2018-03-28T05:45:34.213Z,99031.86
2018-03-28T05:48:03.438Z,99033.37
2018-03-28T05:50:33.410Z,99035.95
2018-03-28T05:53:02.599Z,99036.65
2018-03-28T05:55:31.919Z,99035.69
2018-03-28T05:58:01.124Z,99039.02
2018-03-28T06:00:30.315Z,99039.59
2018-03-28T06:02:59.535Z,99044.09
2018-03-28T06:05:28.763Z,99040.59
2018-03-28T06:07:58.436Z,99039.69
2018-03-28T06:10:28.441Z,99044.44
2018-03-28T06:12:57.651Z,99043.91
2018-03-28T06:15:26.878Z,99039.68
2018-03-28T06:17:57.081Z,99035.53
2018-03-28T06:20:27.062Z,99040.55
2018-03-28T06:22:56.253Z,99046.02
2018-03-28T06:25:25.493Z,99042.13
2018-03-28T06:27:54.657Z,99043.09
2018-03-28T06:30:23.867Z,99040.38
2018-03-28T06:32:53.065Z,99037.78
2018-03-28T06:35:22.416Z,99035.63
2018-03-28T06:37:51.638Z,99036.59
2018-03-28T06:40:20.920Z,99033.53
2018-03-28T06:42:50.857Z,99039.08
2018-03-28T06:45:20.879Z,99036.81
2018-03-28T06:47:50.066Z,99022.38
2018-03-28T06:56:32.207Z,99032.27
2018-03-28T06:59:01.429Z,99025.54
2018-03-28T07:01:30.711Z,99030.00
2018-03-28T07:03:59.953Z,99035.29
2018-03-28T07:06:29.953Z,99029.64
2018-03-28T07:08:59.937Z,99034.48
2018-03-28T07:11:29.168Z,99025.52
2018-03-28T07:13:59.160Z,99026.59
2018-03-28T07:16:28.383Z,99023.94
2018-03-28T07:18:57.587Z,99020.45
2018-03-28T07:21:27.619Z,99019.48
2018-03-28T07:23:57.590Z,99016.88
2018-03-28T07:26:26.808Z,99008.11
2018-03-28T07:28:56.793Z,99014.14
2018-03-28T07:31:26.045Z,99016.11
2018-03-28T07:33:55.261Z,99016.17
2018-03-28T07:36:24.479Z,99022.77
2018-03-28T07:38:53.717Z,99012.41
2018-03-28T07:41:23.764Z,99017.30
2018-03-28T07:43:53.024Z,99012.89
2018-03-28T07:46:23.107Z,99015.38
2018-03-28T07:48:52.356Z,99014.91
2018-03-28T07:51:22.339Z,99023.03
2018-03-28T07:53:51.568Z,99019.92
2018-03-28T07:56:21.542Z,99011.58
2018-03-28T07:58:50.775Z,99010.48
2018-03-28T08:01:20.764Z,99005.23
2018-03-28T08:03:50.182Z,99009.63
2018-03-28T08:06:20.186Z,99004.06
2018-03-28T08:08:49.399Z,99008.16
2018-03-28T08:11:18.627Z,98998.45
2018-03-28T08:13:47.840Z,98998.61
2018-03-28T08:16:17.050Z,99005.69
2018-03-28T08:18:46.333Z,99001.25
2018-03-28T08:21:15.538Z,98997.97
2018-03-28T08:23:44.745Z,98991.77
2018-03-28T08:26:13.948Z,99000.06
2018-03-28T08:28:43.207Z,98993.98
2018-03-28T08:31:12.420Z,98996.91
2018-03-28T08:33:41.644Z,99002.00
2018-03-28T08:36:10.878Z,99003.36
2018-03-28T08:38:40.858Z,98998.28
2018-03-28T08:41:10.147Z,98995.17
2018-03-28T08:43:39.341Z,98994.15
2018-03-28T08:46:08.652Z,98985.89
2018-03-28T08:48:37.859Z,98996.61
2018-03-28T08:51:07.099Z,98999.48
2018-03-28T08:53:36.339Z,98993.73
2018-03-28T08:56:05.639Z,98999.38
2018-03-28T08:58:34.825Z,98996.88
2018-03-28T09:01:04.075Z,98992.80
2018-03-28T09:03:33.325Z,98991.94
2018-03-28T09:06:02.554Z,98990.36
2018-03-28T09:08:31.761Z,98988.47
2018-03-28T09:11:01.017Z,98993.94
2018-03-28T09:13:31.002Z,98987.65
2018-03-28T09:16:00.269Z,98990.96
2018-03-28T09:18:30.291Z,98986.17
2018-03-28T09:20:59.541Z,98971.30
2018-03-28T09:23:28.745Z,98975.72
2018-03-28T09:25:58.104Z,98973.49
2018-03-28T09:28:27.351Z,98974.72
2018-03-28T09:30:56.550Z,98969.56
2018-03-28T09:33:26.551Z,98969.94
2018-03-28T09:35:55.777Z,98963.69
2018-03-28T09:38:25.062Z,98961.02
2018-03-28T09:40:55.297Z,98967.55
2018-03-28T09:43:24.572Z,98960.33
2018-03-28T09:45:54.518Z,98962.23
2018-03-28T09:48:23.767Z,98956.13
2018-03-28T09:50:53.044Z,98955.10
2018-03-28T09:53:22.375Z,98952.98
2018-03-28T09:55:51.641Z,98949.00
2018-03-28T09:58:20.847Z,98941.49
2018-03-28T10:14:13.470Z,98955.63
2018-03-28T10:16:42.688Z,98949.82
2018-03-28T10:19:12.690Z,98946.11
2018-03-28T10:21:42.693Z,98951.88
2018-03-28T10:24:11.911Z,98945.91
2018-03-28T10:26:41.140Z,98943.95
2018-03-28T10:29:10.380Z,98941.94
2018-03-28T10:31:39.611Z,98942.78
2018-03-28T10:34:08.900Z,98934.69
2018-03-28T10:36:38.865Z,98938.88
2018-03-28T10:39:08.097Z,98931.94
2018-03-28T10:44:44.619Z,98926.15
2018-03-28T10:47:13.843Z,98921.52
2018-03-28T10:49:43.170Z,98925.70
2018-03-28T10:52:12.387Z,98923.41
2018-03-28T10:54:42.389Z,98924.50
2018-03-28T10:57:12.420Z,98919.13
2018-03-28T10:59:42.625Z,98915.11
2018-03-28T11:02:11.842Z,98914.36
2018-03-28T11:04:41.871Z,98909.23
2018-03-28T11:07:11.861Z,98913.16
2018-03-28T11:09:41.064Z,98898.11
2018-03-28T11:12:10.315Z,98892.47
2018-03-28T11:14:39.563Z,98887.97
2018-03-28T11:17:09.562Z,98892.56
2018-03-28T11:19:38.784Z,98884.31
2018-03-28T11:22:08.809Z,98874.05
2018-03-28T11:24:38.775Z,98869.42
2018-03-28T11:27:08.003Z,98868.35
2018-03-28T11:29:38.052Z,98864.45
2018-03-28T11:32:07.290Z,98864.73
2018-03-28T11:34:36.618Z,98858.81
2018-03-28T11:37:05.866Z,98848.65
2018-03-28T11:39:35.077Z,98839.24
2018-03-28T11:42:04.292Z,98841.96
2018-03-28T11:44:34.341Z,98831.55
2018-03-28T11:47:04.602Z,98823.50
2018-03-28T11:49:33.797Z,98815.39
2018-03-28T11:52:03.092Z,98817.53
2018-03-28T11:54:33.089Z,98811.36
2018-03-28T11:57:02.468Z,98808.02
2018-03-28T11:59:32.546Z,98805.30
2018-03-28T12:02:01.752Z,98804.20
2018-03-28T12:04:31.005Z,98801.82
2018-03-28T12:07:01.003Z,98798.69
2018-03-28T12:09:30.994Z,98784.34
2018-03-28T12:12:00.222Z,98780.08
2018-03-28T12:14:29.467Z,98777.20
2018-03-28T12:16:58.667Z,98766.22
2018-03-28T12:19:27.894Z,98765.22
2018-03-28T12:21:57.134Z,98762.97
2018-03-28T12:24:26.354Z,98746.80
2018-03-28T12:26:55.618Z,98734.55
2018-03-28T12:29:25.625Z,98734.87
2018-03-28T12:31:54.812Z,98733.51
2018-03-28T12:34:24.818Z,98724.17
2018-03-28T12:36:54.028Z,98724.55
2018-03-28T12:39:24.032Z,98710.91
2018-03-28T12:41:53.229Z,98707.95
2018-03-28T12:44:22.450Z,98708.46
2018-03-28T12:46:51.658Z,98706.08
2018-03-28T12:49:21.750Z,98699.94
2018-03-28T12:51:52.089Z,98695.38
2018-03-28T12:54:22.055Z,98681.23
2018-03-28T12:56:51.291Z,98679.34
2018-03-28T12:59:21.279Z,98679.20
2018-03-28T13:01:50.482Z,98667.30
2018-03-28T13:04:19.743Z,98662.55
2018-03-28T13:06:48.970Z,98647.78
2018-03-28T13:09:18.198Z,98647.27
2018-03-28T13:11:48.204Z,98639.84
2018-03-28T13:14:17.445Z,98634.97
2018-03-28T13:16:46.687Z,98634.97
2018-03-28T13:19:15.972Z,98626.55
2018-03-28T13:24:49.930Z,98624.59
2018-03-28T13:27:19.162Z,98615.81
2018-03-28T13:29:48.378Z,98607.53
2018-03-28T13:32:17.637Z,98604.51
2018-03-28T13:34:47.618Z,98597.06
2018-03-28T13:37:16.874Z,98588.48
2018-03-28T13:39:46.124Z,98574.39
2018-03-28T13:42:15.389Z,98581.02
2018-03-28T13:44:44.600Z,98568.70
2018-03-28T13:47:13.840Z,98567.55
2018-03-28T13:49:43.935Z,98552.22
2018-03-28T13:52:13.160Z,98548.59
2018-03-28T13:54:43.167Z,98542.80
2018-03-28T13:57:13.159Z,98531.33
2018-03-28T13:59:43.176Z,98534.42
2018-03-28T14:02:12.390Z,98525.80
2018-03-28T14:04:41.662Z,98523.48
2018-03-28T14:07:10.900Z,98519.80
2018-03-28T14:09:40.166Z,98515.95
2018-03-28T14:12:09.363Z,98503.45
2018-03-28T14:14:38.594Z,98502.42
2018-03-28T14:17:08.570Z,98497.11
2018-03-28T14:19:37.832Z,98490.11
2018-03-28T14:22:07.063Z,98490.09
2018-03-28T14:24:36.255Z,98491.81
2018-03-28T14:27:05.851Z,98488.41
2018-03-28T14:29:35.898Z,98481.21
2018-03-28T14:35:08.732Z,98466.59
2018-03-28T14:37:38.723Z,98467.09
2018-03-28T14:40:07.926Z,98457.74
2018-03-28T14:42:37.149Z,98452.13
2018-03-28T14:45:07.126Z,98452.02
2018-03-28T14:47:36.350Z,98442.69
2018-03-28T14:50:05.529Z,98447.48
2018-03-28T14:52:34.758Z,98446.54
2018-03-28T14:55:04.011Z,98444.88
2018-03-28T14:57:33.326Z,98439.25
2018-03-28T15:00:02.569Z,98438.55
2018-03-28T15:02:31.827Z,98428.55
2018-03-28T15:05:01.076Z,98421.27
2018-03-28T15:07:30.298Z,98422.66
2018-03-28T15:09:59.485Z,98418.13
2018-03-28T15:12:28.918Z,98412.19
2018-03-28T15:14:58.119Z,98400.06
2018-03-28T15:17:27.375Z,98400.42
2018-03-28T15:19:56.569Z,98390.67
2018-03-28T15:22:25.872Z,98389.75
2018-03-28T15:24:55.063Z,98380.57
2018-03-28T15:27:24.273Z,98375.11
2018-03-28T15:29:53.478Z,98368.34
2018-03-28T15:32:22.699Z,98364.00
2018-03-28T15:34:51.889Z,98356.77
2018-03-28T15:37:21.116Z,98357.11
2018-03-28T15:39:50.299Z,98350.77
2018-03-28T15:42:19.675Z,98353.14
2018-03-28T15:44:48.883Z,98343.92
2018-03-28T15:47:18.116Z,98337.41
2018-03-28T15:49:48.205Z,98329.14
2018-03-28T15:52:17.380Z,98311.03
2018-03-28T15:54:46.647Z,98300.41
2018-03-28T15:57:15.810Z,98281.88
2018-03-28T15:59:45.294Z,98274.71
2018-03-28T16:02:14.508Z,98266.48
2018-03-28T16:04:44.470Z,98263.11
2018-03-28T16:07:13.655Z,98248.49
2018-03-28T16:09:42.875Z,98248.73
2018-03-28T16:12:12.080Z,98245.34
2018-03-28T16:14:41.278Z,98242.03
2018-03-28T16:17:10.533Z,98226.67
2018-03-28T16:19:39.740Z,98229.98
2018-03-28T16:22:09.028Z,98215.79
2018-03-28T16:24:38.291Z,98212.45
2018-03-28T16:27:07.481Z,98187.93
2018-03-28T16:29:36.724Z,98190.72
2018-03-28T16:32:06.793Z,98202.06
2018-03-28T16:34:40.817Z,98205.73
2018-03-28T16:37:10.036Z,98190.25
2018-03-28T16:39:40.011Z,98189.27
2018-03-28T16:42:09.209Z,98192.34
2018-03-28T16:44:38.398Z,98200.69
2018-03-28T16:47:07.612Z,98195.69
2018-03-28T16:49:36.861Z,98183.74
2018-03-28T16:52:06.090Z,98180.51
2018-03-28T16:54:36.527Z,98182.28
2018-03-28T16:57:05.732Z,98174.11
2018-03-28T16:59:34.970Z,98163.77
2018-03-28T17:02:04.966Z,98164.94
2018-03-28T17:04:34.209Z,98154.06
2018-03-28T17:07:03.426Z,98142.38
2018-03-28T17:09:32.764Z,98139.23
2018-03-28T17:12:01.980Z,98135.67
2018-03-28T17:14:31.985Z,98141.28
2018-03-28T17:17:01.237Z,98126.69
2018-03-28T17:19:30.451Z,98124.85
2018-03-28T17:21:59.640Z,98120.50
2018-03-28T17:24:28.919Z,98113.34
2018-03-28T17:26:58.094Z,98110.63
2018-03-28T17:29:27.335Z,98103.49
2018-03-28T17:31:56.527Z,98101.03
2018-03-28T17:34:25.730Z,98093.77
2018-03-28T17:36:54.948Z,98093.19
2018-03-28T17:39:24.160Z,98080.42
2018-03-28T17:41:54.164Z,98083.13
2018-03-28T17:44:24.241Z,98076.94
2018-03-28T17:46:53.436Z,98071.09
2018-03-28T17:49:22.627Z,98063.11
2018-03-28T17:51:51.851Z,98061.84
2018-03-28T17:54:21.052Z,98048.63
2018-03-28T17:56:50.274Z,98038.70
2018-03-28T17:59:19.467Z,98032.91
2018-03-28T18:01:49.511Z,98030.97
2018-03-28T18:04:18.722Z,98026.03
2018-03-28T18:06:47.960Z,98016.42
2018-03-28T18:09:17.413Z,98021.06
2018-03-28T18:11:47.386Z,98013.92
2018-03-28T18:14:16.578Z,98014.89
2018-03-28T18:16:45.816Z,98014.89
2018-03-28T18:19:14.988Z,98011.85
2018-03-28T18:21:44.964Z,98009.98
2018-03-28T18:24:14.179Z,98012.80
2018-03-28T18:26:43.410Z,98012.91
2018-03-28T18:29:13.418Z,98007.10
2018-03-28T18:31:42.671Z,98001.52
2018-03-28T18:34:11.898Z,97998.50
2018-03-28T18:36:41.144Z,98002.45
2018-03-28T18:39:10.354Z,98017.66
2018-03-28T18:41:40.345Z,98032.61
2018-03-28T18:44:09.539Z,98032.73
2018-03-28T18:46:39.520Z,98041.80
2018-03-28T18:49:08.742Z,98029.80
2018-03-28T18:51:38.731Z,98041.02
2018-03-28T18:54:07.926Z,98038.28
2018-03-28T18:56:37.527Z,98033.72
2018-03-28T18:59:06.905Z,98041.86
2018-03-28T19:01:36.818Z,98049.95
2018-03-28T19:04:06.024Z,98056.91
2018-03-28T19:06:35.262Z,98059.45
2018-03-28T19:09:04.479Z,98056.09
2018-03-28T19:11:33.803Z,98052.02
2018-03-28T19:14:03.254Z,98022.51
2018-03-28T19:16:32.460Z,98026.23
2018-03-28T19:19:03.356Z,98029.00
2018-03-28T19:21:32.575Z,98040.73
2018-03-28T19:24:01.793Z,98052.60
2018-03-28T19:26:31.027Z,98051.38
2018-03-28T19:29:00.263Z,98047.67
2018-03-28T19:31:29.480Z,98058.97
2018-03-28T19:33:58.777Z,98059.00
2018-03-28T19:36:27.968Z,98067.36
2018-03-28T19:51:57.220Z,98175.73
2018-03-28T19:54:26.466Z,98204.17
2018-03-28T19:56:55.684Z,98211.28
2018-03-28T19:59:25.668Z,98236.58
2018-03-28T20:01:54.931Z,98251.36
2018-03-28T20:18:23.146Z,98324.13
2018-03-28T20:20:53.117Z,98342.80
2018-03-28T20:23:22.418Z,98348.95
2018-03-28T20:25:51.637Z,98354.19
2018-03-28T20:28:20.835Z,98369.63
2018-03-28T20:30:50.075Z,98370.15
2018-03-28T20:33:19.316Z,98390.42
2018-03-28T20:35:48.531Z,98399.13
2018-03-28T20:38:17.795Z,98390.77
2018-03-28T20:40:47.012Z,98415.21
2018-03-28T20:43:16.237Z,98418.98
2018-03-28T20:45:45.447Z,98416.22
2018-03-28T20:48:15.411Z,98426.21
2018-03-28T20:50:44.624Z,98435.12
2018-03-28T20:53:13.861Z,98435.07
2018-03-28T20:55:43.851Z,98447.69
2018-03-28T20:58:13.142Z,98451.70
2018-03-28T21:00:42.408Z,98456.02
2018-03-28T21:03:11.634Z,98464.95
2018-03-28T21:05:40.849Z,98468.39
2018-03-28T21:08:10.048Z,98477.44
2018-03-28T21:10:39.348Z,98479.57
2018-03-28T21:13:08.658Z,98489.55
2018-03-28T21:15:38.630Z,98501.32
2018-03-28T21:18:07.884Z,98501.52
2018-03-28T21:20:37.842Z,98512.70
2018-03-28T21:23:07.108Z,98522.49
2018-03-28T21:25:37.092Z,98529.56
2018-03-28T21:28:06.313Z,98529.94
2018-03-28T21:30:36.525Z,98540.83
2018-03-28T21:33:06.524Z,98551.47
2018-03-28T21:35:35.739Z,98551.07
2018-03-28T21:38:05.725Z,98559.64
2018-03-28T21:40:34.947Z,98568.37
2018-03-28T21:43:04.960Z,98576.80
2018-03-28T21:45:34.964Z,98584.97
2018-03-28T21:48:04.209Z,98593.07
2018-03-28T21:50:33.603Z,98598.73
2018-03-28T21:53:03.572Z,98602.23
2018-03-28T21:55:32.819Z,98606.16
2018-03-28T21:58:02.039Z,98610.70
2018-03-28T22:00:31.251Z,98616.25
2018-03-28T22:03:00.454Z,98617.05
2018-03-28T22:05:30.436Z,98631.59
2018-03-28T22:07:59.632Z,98631.80
2018-03-28T22:10:28.845Z,98645.48
2018-03-28T22:12:58.091Z,98649.70
2018-03-28T22:15:28.093Z,98666.13
2018-03-28T22:17:57.593Z,98672.00
2018-03-28T22:20:26.838Z,98671.81
2018-03-28T22:22:56.809Z,98670.41
2018-03-28T22:25:26.056Z,98686.42
2018-03-28T22:27:55.295Z,98688.95
2018-03-28T22:30:25.258Z,98687.34
2018-03-28T22:32:54.499Z,98692.48
2018-03-28T22:35:23.701Z,98699.77
2018-03-28T22:37:52.937Z,98698.27
2018-03-28T22:40:22.974Z,98705.71
2018-03-28T22:42:52.242Z,98713.16
2018-03-28T22:45:21.449Z,98719.34
2018-03-28T22:47:50.724Z,98717.53
2018-03-28T22:50:19.976Z,98727.11
2018-03-28T22:52:49.219Z,98725.83
2018-03-28T22:55:18.447Z,98730.28
2018-03-28T22:57:48.478Z,98732.41
2018-03-28T23:00:18.599Z,98751.56
2018-03-28T23:02:48.082Z,98751.80
2018-03-28T23:05:18.082Z,98753.70
2018-03-28T23:07:47.333Z,98761.28
2018-03-28T23:10:16.554Z,98764.84
2018-03-28T23:12:45.806Z,98781.44
2018-03-28T23:15:15.072Z,98776.16
2018-03-28T23:17:44.226Z,98789.22
2018-03-28T23:20:13.479Z,98798.47
2018-03-28T23:22:42.658Z,98805.66
2018-03-28T23:25:11.897Z,98807.92
2018-03-28T23:27:41.917Z,98812.05
2018-03-28T23:30:11.123Z,98819.08
2018-03-28T23:32:40.333Z,98828.19
2018-03-28T23:35:09.569Z,98818.52
2018-03-28T23:37:38.759Z,98828.19
2018-03-28T23:40:07.975Z,98825.71
2018-03-28T23:42:37.942Z,98839.73
2018-03-28T23:45:07.429Z,98837.92
2018-03-28T23:47:36.621Z,98835.70
2018-03-28T23:50:05.870Z,98841.80
2018-03-28T23:52:35.045Z,98841.55
2018-03-28T23:55:04.335Z,98845.20
2018-03-28T23:57:33.525Z,98845.76
